Avon Park, FL

6:57 PM EST on January 23, 2017 (GMT -0500)
734 Citrus / Bonnet Lake | | Change Station
Active Advisory: Small Craft Advisory Active Notice: Public Information Statement

Elev 105 ft 27.55 °N, 81.45 °W | Updated 1 minute ago

Partly Cloudy
Partly Cloudy
65.0 °F
Feels Like 65.0 °F
N
9.0
Wind Variable Wind from West
Gusts 17.0 mph

Today
High -- | Low -- °F
--% Chance of Precip.
Yesterday
High -- | Low -- °F
Precip. -- in
Pressure 29.64 in
Visibility 10.0 miles
Clouds Few 3000 ft
Mostly Cloudy 3800 ft
Dew Point 58 °F
Humidity 77%
Rainfall 0.00 in
Snow Depth Not available.
7:16 AM 6:00 PM
Waning Crescent, 15% visible
METAR KBOW 232335Z AUTO 27018G26KT 10SM FEW030 BKN038 18/12 A2964 RMK AO2
Pressure 29.64 in
Visibility 10.0 miles
Clouds Few 3000 ft
Mostly Cloudy 3800 ft
Dew Point 58 °F
Humidity 77%
Rainfall 0.00 in
Snow Depth Not available.
7:16 AM 6:00 PM
Waning Crescent, 15% visible
METAR KBOW 232335Z AUTO 27018G26KT 10SM FEW030 BKN038 18/12 A2964 RMK AO2

Get Your Daily Forecast Email!

Thanks for signing up!

Be on the lookout for a verification email in your inbox.

You'll start receiving the daily forecast at 8 AM.

×

10-Day Weather Forecast

Almanac

Astronomy

Jan. 23, 2017 Rise Set
Actual Time
Civil Twilight
Nautical Twilight
Astronomical Twilight
Moon
Length of Visible Light
Length of Day
Tomorrow will be .
, % of the Moon is Illuminated

Today's Extremes

State Highs State Lows

Community

WunderPhotos

Upload Photos

1,962,540 photos uploaded!

WunderBlog® & News

Nearby

Air Quality

  Air Quality AQ Index Pollutant
Not available.

Snow Depth

Station Depth Elevation

Earthquake Activity

City Distance Mag. Time & Date
Minimum magnitude displayed is 2.5.

Coastal Water Temperatures

Place Temperature

Stations

Nearby Weather Stations

Station Location Temp. Windchill Dew Point Humidity Wind Precip. Elev Updated Type
                   

Watches & Warnings

Small Craft Advisory
Issued: 3:54 PM EST Jan. 23, 2017 – National Weather Service

... Small Craft Advisory remains in effect until 7 am EST
Tuesday...

* winds and seas... northwest winds 15 to 25 kt with gusts up to 30
kt. Seas 1 foot or less.

Precautionary/preparedness actions...

A Small Craft Advisory means that wind speeds of 20 to 33 knots
are expected to produce hazardous wave conditions to small craft.
Inexperienced mariners... especially those operating smaller
vessels should avoid navigating in these conditions.

A Gale Warning means winds of 34 to 47 knots are imminent or
occurring. Operating a vessel in gale conditions requires
experience and properly equipped vessels. It is highly
recommended that mariners without the proper experience seek safe
Harbor prior to the onset of gale conditions.



Http://www.Weather.Gov/Miami